sensor_id;sensor_type;location;lat;lon;timestamp;P1;durP1;ratioP1;P2;durP2;ratioP2
20080;SDS011;10200;49.232;9.222;2022-10-22T00:01:00;10.90;;;4.27;;
20080;SDS011;10200;49.232;9.222;2022-10-22T00:03:26;5.83;;;3.27;;
20080;SDS011;10200;49.232;9.222;2022-10-22T00:05:52;4.53;;;2.90;;
20080;SDS011;10200;49.232;9.222;2022-10-22T00:08:17;5.77;;;3.73;;
20080;SDS011;10200;49.232;9.222;2022-10-22T00:10:43;7.63;;;4.03;;
20080;SDS011;10200;49.232;9.222;2022-10-22T00:13:09;7.33;;;3.63;;
20080;SDS011;10200;49.232;9.222;2022-10-22T00:15:35;8.03;;;3.63;;
20080;SDS011;10200;49.232;9.222;2022-10-22T00:18:01;6.37;;;3.73;;
20080;SDS011;10200;49.232;9.222;2022-10-22T00:20:26;9.73;;;2.77;;
20080;SDS011;10200;49.232;9.222;2022-10-22T00:22:52;5.30;;;3.30;;
20080;SDS011;10200;49.232;9.222;2022-10-22T00:25:17;5.17;;;3.57;;
20080;SDS011;10200;49.232;9.222;2022-10-22T00:27:43;6.73;;;3.80;;
20080;SDS011;10200;49.232;9.222;2022-10-22T00:30:09;5.70;;;4.00;;
20080;SDS011;10200;49.232;9.222;2022-10-22T00:32:35;8.07;;;3.30;;
20080;SDS011;10200;49.232;9.222;2022-10-22T00:35:00;4.47;;;3.27;;
20080;SDS011;10200;49.232;9.222;2022-10-22T00:37:26;6.10;;;3.17;;
20080;SDS011;10200;49.232;9.222;2022-10-22T00:39:51;6.43;;;3.00;;
20080;SDS011;10200;49.232;9.222;2022-10-22T00:42:19;4.33;;;3.00;;
20080;SDS011;10200;49.232;9.222;2022-10-22T00:47:28;2.60;;;2.10;;
20080;SDS011;10200;49.232;9.222;2022-10-22T00:49:57;2.97;;;1.73;;
20080;SDS011;10200;49.232;9.222;2022-10-22T00:52:24;1.73;;;1.30;;
20080;SDS011;10200;49.232;9.222;2022-10-22T00:54:49;1.20;;;1.10;;
20080;SDS011;10200;49.232;9.222;2022-10-22T00:57:16;2.00;;;1.40;;
20080;SDS011;10200;49.232;9.222;2022-10-22T00:59:44;2.57;;;1.60;;
20080;SDS011;10200;49.232;9.222;2022-10-22T01:02:10;2.27;;;1.40;;
20080;SDS011;10200;49.232;9.222;2022-10-22T01:04:35;2.27;;;1.20;;
20080;SDS011;10200;49.232;9.222;2022-10-22T01:07:01;5.07;;;1.50;;
20080;SDS011;10200;49.232;9.222;2022-10-22T01:09:29;1.40;;;1.00;;
20080;SDS011;10200;49.232;9.222;2022-10-22T01:15:02;4.10;;;1.40;;
20080;SDS011;10200;49.232;9.222;2022-10-22T01:17:54;5.03;;;1.13;;
20080;SDS011;10200;49.232;9.222;2022-10-22T01:20:31;0.70;;;0.70;;
20080;SDS011;10200;49.232;9.222;2022-10-22T01:26:30;3.17;;;1.10;;
20080;SDS011;10200;49.232;9.222;2022-10-22T01:31:14;1.73;;;1.20;;
20080;SDS011;10200;49.232;9.222;2022-10-22T01:33:42;2.97;;;1.50;;
20080;SDS011;10200;49.232;9.222;2022-10-22T01:36:09;2.67;;;1.20;;
20080;SDS011;10200;49.232;9.222;2022-10-22T01:38:36;3.30;;;1.30;;
20080;SDS011;10200;49.232;9.222;2022-10-22T01:41:05;3.73;;;1.83;;
20080;SDS011;10200;49.232;9.222;2022-10-22T01:43:31;1.53;;;1.10;;
20080;SDS011;10200;49.232;9.222;2022-10-22T01:45:58;3.47;;;1.10;;
20080;SDS011;10200;49.232;9.222;2022-10-22T02:04:25;2.50;;;1.50;;
20080;SDS011;10200;49.232;9.222;2022-10-22T02:07:14;2.03;;;1.20;;
20080;SDS011;10200;49.232;9.222;2022-10-22T02:09:43;2.03;;;1.00;;
20080;SDS011;10200;49.232;9.222;2022-10-22T02:12:10;1.23;;;0.90;;
20080;SDS011;10200;49.232;9.222;2022-10-22T02:14:38;1.00;;;0.80;;
20080;SDS011;10200;49.232;9.222;2022-10-22T02:17:08;1.10;;;0.80;;
20080;SDS011;10200;49.232;9.222;2022-10-22T02:19:38;1.20;;;0.97;;
20080;SDS011;10200;49.232;9.222;2022-10-22T02:22:08;0.70;;;0.60;;
20080;SDS011;10200;49.232;9.222;2022-10-22T02:24:34;4.13;;;0.80;;
20080;SDS011;10200;49.232;9.222;2022-10-22T02:27:04;1.07;;;0.70;;
20080;SDS011;10200;49.232;9.222;2022-10-22T02:32:04;0.80;;;0.57;;
20080;SDS011;10200;49.232;9.222;2022-10-22T02:34:33;0.77;;;0.67;;
20080;SDS011;10200;49.232;9.222;2022-10-22T02:36:59;1.07;;;0.50;;
20080;SDS011;10200;49.232;9.222;2022-10-22T02:39:26;1.97;;;0.60;;
20080;SDS011;10200;49.232;9.222;2022-10-22T02:41:53;1.53;;;0.50;;
20080;SDS011;10200;49.232;9.222;2022-10-22T02:44:20;0.57;;;0.57;;
20080;SDS011;10200;49.232;9.222;2022-10-22T02:46:46;2.10;;;0.50;;
20080;SDS011;10200;49.232;9.222;2022-10-22T02:49:12;5.67;;;0.80;;
20080;SDS011;10200;49.232;9.222;2022-10-22T02:51:38;0.50;;;0.50;;
20080;SDS011;10200;49.232;9.222;2022-10-22T02:54:04;1.17;;;0.50;;
20080;SDS011;10200;49.232;9.222;2022-10-22T02:56:30;1.70;;;0.60;;
20080;SDS011;10200;49.232;9.222;2022-10-22T02:58:56;1.00;;;0.50;;
20080;SDS011;10200;49.232;9.222;2022-10-22T03:01:22;1.90;;;0.80;;
20080;SDS011;10200;49.232;9.222;2022-10-22T03:03:47;2.17;;;0.73;;
20080;SDS011;10200;49.232;9.222;2022-10-22T03:06:13;0.67;;;0.50;;
20080;SDS011;10200;49.232;9.222;2022-10-22T03:08:39;0.50;;;0.50;;
20080;SDS011;10200;49.232;9.222;2022-10-22T03:11:05;5.00;;;0.80;;
20080;SDS011;10200;49.232;9.222;2022-10-22T03:13:31;0.60;;;0.60;;
20080;SDS011;10200;49.232;9.222;2022-10-22T03:15:56;1.07;;;0.67;;
20080;SDS011;10200;49.232;9.222;2022-10-22T03:18:22;2.43;;;0.70;;
20080;SDS011;10200;49.232;9.222;2022-10-22T03:20:47;1.77;;;0.70;;
20080;SDS011;10200;49.232;9.222;2022-10-22T03:23:14;0.63;;;0.57;;
20080;SDS011;10200;49.232;9.222;2022-10-22T03:25:43;1.93;;;0.80;;
20080;SDS011;10200;49.232;9.222;2022-10-22T03:28:12;0.83;;;0.63;;
20080;SDS011;10200;49.232;9.222;2022-10-22T03:30:41;0.63;;;0.50;;
20080;SDS011;10200;49.232;9.222;2022-10-22T03:33:06;0.93;;;0.80;;
20080;SDS011;10200;49.232;9.222;2022-10-22T03:35:32;4.83;;;0.60;;
20080;SDS011;10200;49.232;9.222;2022-10-22T03:38:05;2.87;;;0.80;;
20080;SDS011;10200;49.232;9.222;2022-10-22T03:40:31;2.17;;;0.70;;
20080;SDS011;10200;49.232;9.222;2022-10-22T03:42:57;1.07;;;0.93;;
20080;SDS011;10200;49.232;9.222;2022-10-22T03:45:22;0.50;;;0.50;;
20080;SDS011;10200;49.232;9.222;2022-10-22T03:47:48;1.00;;;0.90;;
20080;SDS011;10200;49.232;9.222;2022-10-22T03:50:14;2.23;;;1.17;;
20080;SDS011;10200;49.232;9.222;2022-10-22T03:52:41;1.80;;;1.03;;
20080;SDS011;10200;49.232;9.222;2022-10-22T03:55:07;1.13;;;0.83;;
20080;SDS011;10200;49.232;9.222;2022-10-22T03:57:33;1.80;;;0.70;;
20080;SDS011;10200;49.232;9.222;2022-10-22T03:59:59;0.57;;;0.53;;
20080;SDS011;10200;49.232;9.222;2022-10-22T04:02:24;0.73;;;0.70;;
20080;SDS011;10200;49.232;9.222;2022-10-22T04:04:50;1.00;;;0.90;;
20080;SDS011;10200;49.232;9.222;2022-10-22T04:07:16;1.03;;;0.80;;
20080;SDS011;10200;49.232;9.222;2022-10-22T04:09:41;1.70;;;1.07;;
20080;SDS011;10200;49.232;9.222;2022-10-22T04:12:07;2.10;;;0.90;;
20080;SDS011;10200;49.232;9.222;2022-10-22T04:14:33;3.83;;;1.00;;
20080;SDS011;10200;49.232;9.222;2022-10-22T04:16:59;1.43;;;0.70;;
20080;SDS011;10200;49.232;9.222;2022-10-22T04:19:25;2.00;;;1.00;;
20080;SDS011;10200;49.232;9.222;2022-10-22T04:21:50;2.93;;;1.10;;
20080;SDS011;10200;49.232;9.222;2022-10-22T04:24:16;2.07;;;1.17;;
20080;SDS011;10200;49.232;9.222;2022-10-22T04:26:42;2.43;;;1.10;;
20080;SDS011;10200;49.232;9.222;2022-10-22T04:29:07;1.43;;;1.10;;
20080;SDS011;10200;49.232;9.222;2022-10-22T04:31:33;1.20;;;0.80;;
20080;SDS011;10200;49.232;9.222;2022-10-22T04:33:59;2.57;;;0.97;;
20080;SDS011;10200;49.232;9.222;2022-10-22T04:36:26;5.90;;;1.10;;
20080;SDS011;10200;49.232;9.222;2022-10-22T04:38:56;1.30;;;0.63;;
20080;SDS011;10200;49.232;9.222;2022-10-22T04:41:27;1.87;;;0.90;;
20080;SDS011;10200;49.232;9.222;2022-10-22T04:43:58;2.13;;;0.80;;
20080;SDS011;10200;49.232;9.222;2022-10-22T04:46:24;1.10;;;0.77;;
20080;SDS011;10200;49.232;9.222;2022-10-22T04:48:51;0.60;;;0.60;;
20080;SDS011;10200;49.232;9.222;2022-10-22T04:51:18;2.10;;;0.80;;
20080;SDS011;10200;49.232;9.222;2022-10-22T04:53:46;3.90;;;0.60;;
20080;SDS011;10200;49.232;9.222;2022-10-22T04:56:13;6.73;;;0.80;;
20080;SDS011;10200;49.232;9.222;2022-10-22T04:58:45;0.50;;;0.50;;
20080;SDS011;10200;49.232;9.222;2022-10-22T05:01:31;2.07;;;0.60;;
20080;SDS011;10200;49.232;9.222;2022-10-22T05:04:00;1.93;;;0.73;;
20080;SDS011;10200;49.232;9.222;2022-10-22T05:06:27;2.30;;;0.93;;
20080;SDS011;10200;49.232;9.222;2022-10-22T05:08:56;1.17;;;0.70;;
20080;SDS011;10200;49.232;9.222;2022-10-22T05:11:25;2.07;;;0.60;;
20080;SDS011;10200;49.232;9.222;2022-10-22T05:13:56;1.33;;;0.70;;
20080;SDS011;10200;49.232;9.222;2022-10-22T05:16:23;1.17;;;1.10;;
20080;SDS011;10200;49.232;9.222;2022-10-22T05:18:49;8.47;;;0.80;;
20080;SDS011;10200;49.232;9.222;2022-10-22T05:21:16;1.27;;;0.90;;
20080;SDS011;10200;49.232;9.222;2022-10-22T05:23:43;1.43;;;0.90;;
20080;SDS011;10200;49.232;9.222;2022-10-22T05:26:12;2.27;;;1.13;;
20080;SDS011;10200;49.232;9.222;2022-10-22T05:28:39;3.10;;;2.23;;
20080;SDS011;10200;49.232;9.222;2022-10-22T05:31:06;1.80;;;1.70;;
20080;SDS011;10200;49.232;9.222;2022-10-22T05:33:33;2.07;;;1.37;;
20080;SDS011;10200;49.232;9.222;2022-10-22T05:35:59;4.30;;;1.80;;
20080;SDS011;10200;49.232;9.222;2022-10-22T05:38:25;4.33;;;1.90;;
20080;SDS011;10200;49.232;9.222;2022-10-22T05:40:58;2.67;;;2.07;;
20080;SDS011;10200;49.232;9.222;2022-10-22T05:43:25;1.63;;;1.53;;
20080;SDS011;10200;49.232;9.222;2022-10-22T05:45:51;3.33;;;2.83;;
20080;SDS011;10200;49.232;9.222;2022-10-22T05:48:16;1.90;;;1.60;;
20080;SDS011;10200;49.232;9.222;2022-10-22T05:50:42;1.73;;;1.63;;
20080;SDS011;10200;49.232;9.222;2022-10-22T05:53:10;4.83;;;1.43;;
20080;SDS011;10200;49.232;9.222;2022-10-22T05:55:36;2.80;;;2.10;;
20080;SDS011;10200;49.232;9.222;2022-10-22T05:58:04;4.30;;;2.67;;
20080;SDS011;10200;49.232;9.222;2022-10-22T06:00:30;2.10;;;1.40;;
20080;SDS011;10200;49.232;9.222;2022-10-22T06:02:56;1.53;;;1.27;;
20080;SDS011;10200;49.232;9.222;2022-10-22T06:05:21;3.00;;;1.70;;
20080;SDS011;10200;49.232;9.222;2022-10-22T06:07:47;3.00;;;1.60;;
20080;SDS011;10200;49.232;9.222;2022-10-22T06:10:13;5.40;;;1.90;;
20080;SDS011;10200;49.232;9.222;2022-10-22T06:12:40;2.27;;;1.50;;
20080;SDS011;10200;49.232;9.222;2022-10-22T06:15:06;4.77;;;2.90;;
20080;SDS011;10200;49.232;9.222;2022-10-22T06:17:34;4.50;;;2.50;;
20080;SDS011;10200;49.232;9.222;2022-10-22T06:19:59;4.27;;;2.73;;
20080;SDS011;10200;49.232;9.222;2022-10-22T06:22:25;2.93;;;2.07;;
20080;SDS011;10200;49.232;9.222;2022-10-22T06:24:51;3.63;;;1.97;;
20080;SDS011;10200;49.232;9.222;2022-10-22T06:27:16;2.10;;;1.90;;
20080;SDS011;10200;49.232;9.222;2022-10-22T06:29:42;2.40;;;1.47;;
20080;SDS011;10200;49.232;9.222;2022-10-22T06:32:08;4.27;;;2.17;;
20080;SDS011;10200;49.232;9.222;2022-10-22T06:34:33;4.40;;;1.60;;
20080;SDS011;10200;49.232;9.222;2022-10-22T06:36:59;2.07;;;1.90;;
20080;SDS011;10200;49.232;9.222;2022-10-22T06:39:24;4.27;;;1.80;;
20080;SDS011;10200;49.232;9.222;2022-10-22T06:41:50;5.27;;;2.43;;
20080;SDS011;10200;49.232;9.222;2022-10-22T06:44:17;3.10;;;2.60;;
20080;SDS011;10200;49.232;9.222;2022-10-22T06:46:43;6.63;;;3.23;;
20080;SDS011;10200;49.232;9.222;2022-10-22T06:49:13;5.67;;;2.30;;
20080;SDS011;10200;49.232;9.222;2022-10-22T06:51:39;7.07;;;2.57;;
20080;SDS011;10200;49.232;9.222;2022-10-22T06:54:05;3.07;;;2.10;;
20080;SDS011;10200;49.232;9.222;2022-10-22T06:56:31;3.53;;;2.23;;
20080;SDS011;10200;49.232;9.222;2022-10-22T06:58:57;2.57;;;2.37;;
20080;SDS011;10200;49.232;9.222;2022-10-22T07:01:24;4.33;;;1.60;;
20080;SDS011;10200;49.232;9.222;2022-10-22T07:03:51;1.70;;;1.50;;
20080;SDS011;10200;49.232;9.222;2022-10-22T07:06:18;4.57;;;1.77;;
20080;SDS011;10200;49.232;9.222;2022-10-22T07:08:44;1.53;;;1.43;;
20080;SDS011;10200;49.232;9.222;2022-10-22T07:11:13;1.80;;;1.70;;
20080;SDS011;10200;49.232;9.222;2022-10-22T07:13:39;5.63;;;1.87;;
20080;SDS011;10200;49.232;9.222;2022-10-22T07:16:05;4.77;;;1.97;;
20080;SDS011;10200;49.232;9.222;2022-10-22T07:18:32;5.37;;;1.83;;
20080;SDS011;10200;49.232;9.222;2022-10-22T07:20:58;4.70;;;2.13;;
20080;SDS011;10200;49.232;9.222;2022-10-22T07:23:24;3.27;;;2.13;;
20080;SDS011;10200;49.232;9.222;2022-10-22T07:25:50;4.27;;;1.73;;
20080;SDS011;10200;49.232;9.222;2022-10-22T07:28:16;2.93;;;2.10;;
20080;SDS011;10200;49.232;9.222;2022-10-22T07:30:42;1.90;;;1.80;;
20080;SDS011;10200;49.232;9.222;2022-10-22T07:33:07;2.60;;;2.00;;
20080;SDS011;10200;49.232;9.222;2022-10-22T07:35:33;6.93;;;1.47;;
20080;SDS011;10200;49.232;9.222;2022-10-22T07:38:00;5.63;;;2.33;;
20080;SDS011;10200;49.232;9.222;2022-10-22T07:40:26;9.50;;;5.23;;
20080;SDS011;10200;49.232;9.222;2022-10-22T07:42:51;5.13;;;3.60;;
20080;SDS011;10200;49.232;9.222;2022-10-22T07:45:17;5.37;;;3.77;;
20080;SDS011;10200;49.232;9.222;2022-10-22T07:47:42;7.43;;;3.43;;
20080;SDS011;10200;49.232;9.222;2022-10-22T07:50:08;7.30;;;2.87;;
20080;SDS011;10200;49.232;9.222;2022-10-22T07:52:34;2.77;;;2.00;;
20080;SDS011;10200;49.232;9.222;2022-10-22T07:55:00;10.87;;;5.93;;
20080;SDS011;10200;49.232;9.222;2022-10-22T07:57:25;5.50;;;3.10;;
20080;SDS011;10200;49.232;9.222;2022-10-22T07:59:51;2.50;;;2.23;;
20080;SDS011;10200;49.232;9.222;2022-10-22T08:02:17;5.00;;;2.63;;
20080;SDS011;10200;49.232;9.222;2022-10-22T08:04:42;2.77;;;2.13;;
20080;SDS011;10200;49.232;9.222;2022-10-22T08:07:08;3.60;;;2.07;;
20080;SDS011;10200;49.232;9.222;2022-10-22T08:09:33;5.40;;;2.70;;
20080;SDS011;10200;49.232;9.222;2022-10-22T08:11:59;9.17;;;2.77;;
20080;SDS011;10200;49.232;9.222;2022-10-22T08:14:24;4.10;;;3.27;;
20080;SDS011;10200;49.232;9.222;2022-10-22T08:16:50;5.37;;;2.97;;
20080;SDS011;10200;49.232;9.222;2022-10-22T08:19:16;8.47;;;3.33;;
20080;SDS011;10200;49.232;9.222;2022-10-22T08:21:43;5.30;;;3.25;;
20080;SDS011;10200;49.232;9.222;2022-10-22T08:24:10;4.15;;;3.40;;
20080;SDS011;10200;49.232;9.222;2022-10-22T08:26:35;5.40;;;3.10;;
20080;SDS011;10200;49.232;9.222;2022-10-22T08:29:01;4.22;;;2.00;;
20080;SDS011;10200;49.232;9.222;2022-10-22T08:31:27;9.85;;;2.72;;
20080;SDS011;10200;49.232;9.222;2022-10-22T08:33:52;4.90;;;2.22;;
20080;SDS011;10200;49.232;9.222;2022-10-22T08:36:18;6.60;;;2.78;;
20080;SDS011;10200;49.232;9.222;2022-10-22T08:38:43;7.22;;;3.28;;
20080;SDS011;10200;49.232;9.222;2022-10-22T08:41:13;5.88;;;2.42;;
20080;SDS011;10200;49.232;9.222;2022-10-22T08:49:20;5.80;;;3.22;;
20080;SDS011;10200;49.232;9.222;2022-10-22T08:51:52;3.20;;;1.65;;
20080;SDS011;10200;49.232;9.222;2022-10-22T08:54:27;5.05;;;2.20;;
20080;SDS011;10200;49.232;9.222;2022-10-22T08:59:31;4.18;;;1.50;;
20080;SDS011;10200;49.232;9.222;2022-10-22T09:02:12;2.05;;;1.77;;
20080;SDS011;10200;49.232;9.222;2022-10-22T09:05:41;3.22;;;1.58;;
20080;SDS011;10200;49.232;9.222;2022-10-22T09:07:58;6.25;;;2.08;;
20080;SDS011;10200;49.232;9.222;2022-10-22T09:10:26;3.03;;;1.92;;
20080;SDS011;10200;49.232;9.222;2022-10-22T09:12:56;4.82;;;1.60;;
20080;SDS011;10200;49.232;9.222;2022-10-22T09:15:22;2.55;;;1.38;;
20080;SDS011;10200;49.232;9.222;2022-10-22T09:20:27;1.10;;;0.95;;
20080;SDS011;10200;49.232;9.222;2022-10-22T09:25:57;4.07;;;1.10;;
20080;SDS011;10200;49.232;9.222;2022-10-22T09:28:24;3.92;;;1.33;;
20080;SDS011;10200;49.232;9.222;2022-10-22T09:30:49;2.17;;;1.25;;
20080;SDS011;10200;49.232;9.222;2022-10-22T09:33:25;3.55;;;1.30;;
20080;SDS011;10200;49.232;9.222;2022-10-22T09:36:02;2.83;;;0.85;;
20080;SDS011;10200;49.232;9.222;2022-10-22T09:38:30;10.90;;;1.48;;
20080;SDS011;10200;49.232;9.222;2022-10-22T09:40:59;1.70;;;1.15;;
20080;SDS011;10200;49.232;9.222;2022-10-22T09:43:27;2.95;;;1.30;;
20080;SDS011;10200;49.232;9.222;2022-10-22T09:46:00;2.42;;;1.10;;
20080;SDS011;10200;49.232;9.222;2022-10-22T09:53:47;1.05;;;0.82;;
20080;SDS011;10200;49.232;9.222;2022-10-22T09:56:27;2.33;;;1.27;;
20080;SDS011;10200;49.232;9.222;2022-10-22T09:59:08;4.95;;;2.13;;
20080;SDS011;10200;49.232;9.222;2022-10-22T10:01:54;1.80;;;1.30;;
20080;SDS011;10200;49.232;9.222;2022-10-22T10:04:25;1.95;;;0.68;;
20080;SDS011;10200;49.232;9.222;2022-10-22T10:06:53;0.98;;;0.73;;
20080;SDS011;10200;49.232;9.222;2022-10-22T10:09:22;0.65;;;0.63;;
20080;SDS011;10200;49.232;9.222;2022-10-22T10:20:48;1.55;;;0.95;;
20080;SDS011;10200;49.232;9.222;2022-10-22T10:24:12;2.25;;;0.50;;
20080;SDS011;10200;49.232;9.222;2022-10-22T10:26:42;0.90;;;0.80;;
20080;SDS011;10200;49.232;9.222;2022-10-22T10:43:17;1.85;;;0.70;;
20080;SDS011;10200;49.232;9.222;2022-10-22T10:50:45;0.60;;;0.60;;
20080;SDS011;10200;49.232;9.222;2022-10-22T10:56:17;1.75;;;0.47;;
20080;SDS011;10200;49.232;9.222;2022-10-22T11:04:12;0.50;;;0.50;;
20080;SDS011;10200;49.232;9.222;2022-10-22T11:06:44;0.85;;;0.38;;
20080;SDS011;10200;49.232;9.222;2022-10-22T11:11:47;0.65;;;0.60;;
20080;SDS011;10200;49.232;9.222;2022-10-22T11:14:22;1.02;;;0.57;;
20080;SDS011;10200;49.232;9.222;2022-10-22T11:17:16;0.98;;;0.88;;
20080;SDS011;10200;49.232;9.222;2022-10-22T11:19:44;1.90;;;0.68;;
20080;SDS011;10200;49.232;9.222;2022-10-22T11:22:34;0.70;;;0.50;;
20080;SDS011;10200;49.232;9.222;2022-10-22T11:25:13;2.90;;;0.50;;
20080;SDS011;10200;49.232;9.222;2022-10-22T11:30:35;1.80;;;0.75;;
20080;SDS011;10200;49.232;9.222;2022-10-22T11:33:06;2.97;;;1.02;;
20080;SDS011;10200;49.232;9.222;2022-10-22T11:35:38;2.15;;;0.55;;
20080;SDS011;10200;49.232;9.222;2022-10-22T11:38:06;6.30;;;0.98;;
20080;SDS011;10200;49.232;9.222;2022-10-22T11:40:38;1.17;;;0.70;;
20080;SDS011;10200;49.232;9.222;2022-10-22T11:43:10;0.55;;;0.52;;
20080;SDS011;10200;49.232;9.222;2022-10-22T11:45:49;1.60;;;0.68;;
20080;SDS011;10200;49.232;9.222;2022-10-22T11:48:25;1.48;;;0.80;;
20080;SDS011;10200;49.232;9.222;2022-10-22T11:50:56;1.55;;;0.70;;
20080;SDS011;10200;49.232;9.222;2022-10-22T11:55:55;2.85;;;0.73;;
20080;SDS011;10200;49.232;9.222;2022-10-22T12:00:52;0.40;;;0.40;;
20080;SDS011;10200;49.232;9.222;2022-10-22T12:08:44;0.85;;;0.75;;
20080;SDS011;10200;49.232;9.222;2022-10-22T12:19:38;1.45;;;0.65;;
20080;SDS011;10200;49.232;9.222;2022-10-22T12:24:39;2.08;;;0.90;;
20080;SDS011;10200;49.232;9.222;2022-10-22T12:29:58;1.52;;;0.90;;
20080;SDS011;10200;49.232;9.222;2022-10-22T12:32:33;0.80;;;0.73;;
20080;SDS011;10200;49.232;9.222;2022-10-22T12:35:20;1.95;;;0.70;;
20080;SDS011;10200;49.232;9.222;2022-10-22T12:37:49;0.88;;;0.75;;
20080;SDS011;10200;49.232;9.222;2022-10-22T12:40:38;4.22;;;0.77;;
20080;SDS011;10200;49.232;9.222;2022-10-22T12:45:36;1.55;;;0.70;;
20080;SDS011;10200;49.232;9.222;2022-10-22T12:48:04;1.48;;;0.47;;
20080;SDS011;10200;49.232;9.222;2022-10-22T12:50:39;2.78;;;1.23;;
20080;SDS011;10200;49.232;9.222;2022-10-22T12:56:04;2.63;;;0.65;;
20080;SDS011;10200;49.232;9.222;2022-10-22T13:01:41;1.60;;;0.93;;
20080;SDS011;10200;49.232;9.222;2022-10-22T13:04:21;3.80;;;0.73;;
20080;SDS011;10200;49.232;9.222;2022-10-22T13:06:51;1.23;;;0.60;;
20080;SDS011;10200;49.232;9.222;2022-10-22T13:09:35;3.92;;;2.22;;
20080;SDS011;10200;49.232;9.222;2022-10-22T13:12:09;1.65;;;1.00;;
20080;SDS011;10200;49.232;9.222;2022-10-22T13:14:40;0.98;;;0.68;;
20080;SDS011;10200;49.232;9.222;2022-10-22T13:17:17;1.20;;;0.63;;
20080;SDS011;10200;49.232;9.222;2022-10-22T13:20:04;3.22;;;0.70;;
20080;SDS011;10200;49.232;9.222;2022-10-22T13:22:51;2.13;;;0.68;;
20080;SDS011;10200;49.232;9.222;2022-10-22T13:25:28;2.70;;;0.90;;
20080;SDS011;10200;49.232;9.222;2022-10-22T13:27:59;1.60;;;0.75;;
20080;SDS011;10200;49.232;9.222;2022-10-22T13:30:35;2.28;;;1.70;;
20080;SDS011;10200;49.232;9.222;2022-10-22T13:33:03;3.28;;;1.35;;
20080;SDS011;10200;49.232;9.222;2022-10-22T13:35:48;2.45;;;0.70;;
20080;SDS011;10200;49.232;9.222;2022-10-22T13:38:16;1.08;;;0.70;;
20080;SDS011;10200;49.232;9.222;2022-10-22T13:40:43;0.80;;;0.65;;
20080;SDS011;10200;49.232;9.222;2022-10-22T13:43:09;1.25;;;0.50;;
20080;SDS011;10200;49.232;9.222;2022-10-22T13:45:35;1.38;;;0.75;;
20080;SDS011;10200;49.232;9.222;2022-10-22T13:48:00;1.58;;;0.70;;
20080;SDS011;10200;49.232;9.222;2022-10-22T13:50:27;2.15;;;0.55;;
20080;SDS011;10200;49.232;9.222;2022-10-22T13:52:53;1.70;;;0.90;;
20080;SDS011;10200;49.232;9.222;2022-10-22T13:55:24;1.52;;;0.70;;
20080;SDS011;10200;49.232;9.222;2022-10-22T13:57:56;2.00;;;0.90;;
20080;SDS011;10200;49.232;9.222;2022-10-22T14:00:25;3.38;;;2.15;;
20080;SDS011;10200;49.232;9.222;2022-10-22T14:02:52;2.85;;;0.85;;
20080;SDS011;10200;49.232;9.222;2022-10-22T14:05:20;1.13;;;0.60;;
20080;SDS011;10200;49.232;9.222;2022-10-22T14:07:46;1.30;;;0.50;;
20080;SDS011;10200;49.232;9.222;2022-10-22T14:10:20;2.33;;;0.80;;
20080;SDS011;10200;49.232;9.222;2022-10-22T14:12:47;2.38;;;0.82;;
20080;SDS011;10200;49.232;9.222;2022-10-22T14:15:14;1.17;;;0.70;;
20080;SDS011;10200;49.232;9.222;2022-10-22T14:17:41;2.05;;;0.63;;
20080;SDS011;10200;49.232;9.222;2022-10-22T14:20:14;2.35;;;0.80;;
20080;SDS011;10200;49.232;9.222;2022-10-22T14:22:43;3.60;;;0.70;;
20080;SDS011;10200;49.232;9.222;2022-10-22T14:25:13;2.40;;;0.80;;
20080;SDS011;10200;49.232;9.222;2022-10-22T14:27:40;0.95;;;0.60;;
20080;SDS011;10200;49.232;9.222;2022-10-22T14:30:06;1.52;;;0.70;;
20080;SDS011;10200;49.232;9.222;2022-10-22T14:32:32;1.38;;;0.60;;
20080;SDS011;10200;49.232;9.222;2022-10-22T14:34:58;2.03;;;1.20;;
20080;SDS011;10200;49.232;9.222;2022-10-22T14:37:25;0.65;;;0.65;;
20080;SDS011;10200;49.232;9.222;2022-10-22T14:39:50;2.22;;;0.85;;
20080;SDS011;10200;49.232;9.222;2022-10-22T14:42:23;1.70;;;0.98;;
20080;SDS011;10200;49.232;9.222;2022-10-22T14:44:49;1.27;;;0.68;;
20080;SDS011;10200;49.232;9.222;2022-10-22T14:47:15;1.63;;;0.77;;
20080;SDS011;10200;49.232;9.222;2022-10-22T14:49:40;1.13;;;0.65;;
20080;SDS011;10200;49.232;9.222;2022-10-22T14:52:06;5.15;;;0.98;;
20080;SDS011;10200;49.232;9.222;2022-10-22T14:54:31;3.13;;;0.90;;
20080;SDS011;10200;49.232;9.222;2022-10-22T14:56:59;1.65;;;0.90;;
20080;SDS011;10200;49.232;9.222;2022-10-22T14:59:25;0.70;;;0.60;;
20080;SDS011;10200;49.232;9.222;2022-10-22T15:01:51;2.67;;;0.88;;
20080;SDS011;10200;49.232;9.222;2022-10-22T15:04:17;3.13;;;0.93;;
20080;SDS011;10200;49.232;9.222;2022-10-22T15:06:42;1.95;;;0.73;;
20080;SDS011;10200;49.232;9.222;2022-10-22T15:09:08;2.50;;;0.85;;
20080;SDS011;10200;49.232;9.222;2022-10-22T15:11:34;0.98;;;0.70;;
20080;SDS011;10200;49.232;9.222;2022-10-22T15:13:59;1.23;;;0.65;;
20080;SDS011;10200;49.232;9.222;2022-10-22T15:16:25;1.90;;;0.90;;
20080;SDS011;10200;49.232;9.222;2022-10-22T15:18:50;2.22;;;1.38;;
20080;SDS011;10200;49.232;9.222;2022-10-22T15:21:18;2.90;;;0.88;;
20080;SDS011;10200;49.232;9.222;2022-10-22T15:23:46;1.42;;;0.90;;
20080;SDS011;10200;49.232;9.222;2022-10-22T15:26:12;3.60;;;0.95;;
20080;SDS011;10200;49.232;9.222;2022-10-22T15:28:38;2.45;;;0.73;;
20080;SDS011;10200;49.232;9.222;2022-10-22T15:31:05;1.58;;;0.98;;
20080;SDS011;10200;49.232;9.222;2022-10-22T15:33:31;3.92;;;1.00;;
20080;SDS011;10200;49.232;9.222;2022-10-22T15:35:57;2.65;;;1.42;;
20080;SDS011;10200;49.232;9.222;2022-10-22T15:38:32;8.27;;;6.00;;
20080;SDS011;10200;49.232;9.222;2022-10-22T15:41:01;6.10;;;3.28;;
20080;SDS011;10200;49.232;9.222;2022-10-22T15:43:28;3.30;;;1.50;;
20080;SDS011;10200;49.232;9.222;2022-10-22T15:46:08;3.65;;;1.10;;
20080;SDS011;10200;49.232;9.222;2022-10-22T15:48:38;0.95;;;0.90;;
20080;SDS011;10200;49.232;9.222;2022-10-22T15:51:08;1.25;;;0.65;;
20080;SDS011;10200;49.232;9.222;2022-10-22T15:53:35;1.50;;;0.70;;
20080;SDS011;10200;49.232;9.222;2022-10-22T15:56:00;3.78;;;1.15;;
20080;SDS011;10200;49.232;9.222;2022-10-22T15:58:26;1.58;;;0.68;;
20080;SDS011;10200;49.232;9.222;2022-10-22T16:00:52;2.25;;;0.90;;
20080;SDS011;10200;49.232;9.222;2022-10-22T16:03:17;1.88;;;1.42;;
20080;SDS011;10200;49.232;9.222;2022-10-22T16:05:50;3.20;;;1.92;;
20080;SDS011;10200;49.232;9.222;2022-10-22T16:08:18;6.28;;;4.35;;
20080;SDS011;10200;49.232;9.222;2022-10-22T16:10:44;5.80;;;3.33;;
20080;SDS011;10200;49.232;9.222;2022-10-22T16:13:12;3.13;;;2.25;;
20080;SDS011;10200;49.232;9.222;2022-10-22T16:15:38;6.97;;;4.57;;
20080;SDS011;10200;49.232;9.222;2022-10-22T16:18:03;5.45;;;3.10;;
20080;SDS011;10200;49.232;9.222;2022-10-22T16:20:29;6.43;;;1.90;;
20080;SDS011;10200;49.232;9.222;2022-10-22T16:22:54;2.25;;;1.23;;
20080;SDS011;10200;49.232;9.222;2022-10-22T16:25:20;2.45;;;0.88;;
20080;SDS011;10200;49.232;9.222;2022-10-22T16:27:49;4.45;;;2.40;;
20080;SDS011;10200;49.232;9.222;2022-10-22T16:30:15;2.55;;;2.35;;
20080;SDS011;10200;49.232;9.222;2022-10-22T16:32:40;1.25;;;1.13;;
20080;SDS011;10200;49.232;9.222;2022-10-22T16:35:06;2.72;;;1.48;;
20080;SDS011;10200;49.232;9.222;2022-10-22T16:37:32;3.88;;;2.40;;
20080;SDS011;10200;49.232;9.222;2022-10-22T16:39:58;6.05;;;2.90;;
20080;SDS011;10200;49.232;9.222;2022-10-22T16:42:23;4.28;;;2.10;;
20080;SDS011;10200;49.232;9.222;2022-10-22T16:44:49;5.35;;;1.15;;
20080;SDS011;10200;49.232;9.222;2022-10-22T16:47:15;6.55;;;1.35;;
20080;SDS011;10200;49.232;9.222;2022-10-22T16:49:40;2.40;;;1.27;;
20080;SDS011;10200;49.232;9.222;2022-10-22T16:52:06;6.15;;;2.40;;
20080;SDS011;10200;49.232;9.222;2022-10-22T16:54:31;3.22;;;1.77;;
20080;SDS011;10200;49.232;9.222;2022-10-22T16:56:57;4.35;;;1.55;;
20080;SDS011;10200;49.232;9.222;2022-10-22T16:59:22;4.57;;;1.38;;